LBT95B DTMB-DABB
Flight info
| Callsign | LBT95B |
|---|---|
| Flight time | N/A |
| Altitude | 26000 |
| Route | ABGOL1A ABGOL V310 BARIM A411 MORJA |
| Aircraft | A320/M-SDE3FGHIRWY/LB1 |
Departure
| Time | N/A |
|---|---|
| Airport | Monastir Habib Bourguiba International Airport (DTMB) |
Arrival
| Time | 2026-04-25 16:22 |
|---|---|
| Airport | Annaba Rabah Bitat Airport (DABB) |
| Time | Latitude | Longitude | Altitude | Speed | Heading |
|---|---|---|---|---|---|
| 2026-04-25 15:59 | 36.87898 | 6.93398 | 25650 ft | 409 kts | 305° |
| 2026-04-25 15:59 | 36.89810 | 6.90784 | 25649 ft | 408 kts | 321° |
| 2026-04-25 16:00 | 36.92228 | 6.88933 | 25649 ft | 409 kts | 337° |
| 2026-04-25 16:00 | 36.94049 | 6.88185 | 25650 ft | 409 kts | 348° |
| 2026-04-25 16:00 | 36.97795 | 6.87993 | 25649 ft | 410 kts | 8° |
| 2026-04-25 16:00 | 37.00528 | 6.88968 | 25650 ft | 410 kts | 24° |
| 2026-04-25 16:01 | 37.02949 | 6.90849 | 25649 ft | 411 kts | 40° |
| 2026-04-25 16:01 | 37.04864 | 6.93482 | 25649 ft | 411 kts | 56° |
| 2026-04-25 16:01 | 37.06132 | 6.96680 | 25649 ft | 411 kts | 72° |
| 2026-04-25 16:01 | 37.06655 | 7.00184 | 25650 ft | 411 kts | 88° |
| 2026-04-25 16:02 | 37.06420 | 7.03752 | 25652 ft | 411 kts | 99° |
| 2026-04-25 16:02 | 37.05939 | 7.07283 | 25651 ft | 412 kts | 99° |
| 2026-04-25 16:02 | 37.05454 | 7.10818 | 25653 ft | 412 kts | 99° |
| 2026-04-25 16:02 | 37.04969 | 7.14354 | 25651 ft | 412 kts | 99° |
| 2026-04-25 16:03 | 37.04486 | 7.17891 | 25651 ft | 412 kts | 99° |
| 2026-04-25 16:03 | 37.04002 | 7.21431 | 25652 ft | 412 kts | 99° |
| 2026-04-25 16:03 | 37.03520 | 7.24952 | 25293 ft | 408 kts | 99° |
| 2026-04-25 16:03 | 37.03070 | 7.28444 | 24729 ft | 405 kts | 95° |
| 2026-04-25 16:04 | 37.02939 | 7.31943 | 24312 ft | 398 kts | 92° |
| 2026-04-25 16:04 | 37.02847 | 7.35343 | 24038 ft | 388 kts | 92° |
| 2026-04-25 16:04 | 37.02756 | 7.38708 | 23496 ft | 386 kts | 92° |
| 2026-04-25 16:04 | 37.02668 | 7.42052 | 22990 ft | 384 kts | 92° |
| 2026-04-25 16:05 | 37.02579 | 7.45380 | 22502 ft | 381 kts | 92° |
| 2026-04-25 16:05 | 37.02487 | 7.48681 | 22023 ft | 379 kts | 92° |
| 2026-04-25 16:05 | 37.02303 | 7.55218 | 21124 ft | 372 kts | 92° |
| 2026-04-25 16:06 | 37.02213 | 7.58402 | 20689 ft | 370 kts | 92° |
| 2026-04-25 16:06 | 37.02122 | 7.61599 | 20241 ft | 367 kts | 92° |
| 2026-04-25 16:06 | 37.02030 | 7.64782 | 19795 ft | 364 kts | 92° |
| 2026-04-25 16:06 | 37.01937 | 7.67941 | 19354 ft | 362 kts | 92° |
| 2026-04-25 16:07 | 37.01844 | 7.71078 | 18917 ft | 360 kts | 92° |
| 2026-04-25 16:07 | 37.01783 | 7.73184 | 18624 ft | 358 kts | 91° |
| 2026-04-25 16:07 | 37.02381 | 7.77172 | 18067 ft | 353 kts | 64° |
| 2026-04-25 16:07 | 37.03793 | 7.79652 | 17625 ft | 350 kts | 42° |
| 2026-04-25 16:08 | 37.05820 | 7.81280 | 17189 ft | 347 kts | 20° |
| 2026-04-25 16:08 | 37.08169 | 7.81835 | 16750 ft | 344 kts | 359° |
| 2026-04-25 16:08 | 37.10552 | 7.81729 | 16286 ft | 343 kts | 360° |
| 2026-04-25 16:08 | 37.12935 | 7.81781 | 15861 ft | 341 kts | 1° |
| 2026-04-25 16:09 | 37.15303 | 7.81857 | 15455 ft | 339 kts | 1° |
| 2026-04-25 16:09 | 37.17648 | 7.82099 | 15050 ft | 337 kts | 14° |
| 2026-04-25 16:09 | 37.19763 | 7.83302 | 14662 ft | 335 kts | 36° |
| 2026-04-25 16:09 | 37.21333 | 7.85421 | 14267 ft | 333 kts | 59° |
| 2026-04-25 16:10 | 37.22117 | 7.88128 | 13853 ft | 331 kts | 83° |
| 2026-04-25 16:10 | 37.21994 | 7.90984 | 13444 ft | 329 kts | 106° |
| 2026-04-25 16:10 | 37.20988 | 7.93532 | 13027 ft | 327 kts | 128° |
| 2026-04-25 16:10 | 37.19480 | 7.95660 | 12598 ft | 326 kts | 134° |
| 2026-04-25 16:11 | 37.17918 | 7.97715 | 12185 ft | 325 kts | 134° |
| 2026-04-25 16:11 | 37.16360 | 7.99750 | 11789 ft | 323 kts | 134° |
| 2026-04-25 16:11 | 37.14807 | 8.01774 | 11383 ft | 321 kts | 134° |
| 2026-04-25 16:11 | 37.13264 | 8.03783 | 10980 ft | 319 kts | 134° |
| 2026-04-25 16:12 | 37.11730 | 8.05780 | 10586 ft | 317 kts | 134° |
| 2026-04-25 16:12 | 37.10204 | 8.07765 | 10182 ft | 315 kts | 134° |
| 2026-04-25 16:12 | 37.08686 | 8.09739 | 9776 ft | 313 kts | 134° |
| 2026-04-25 16:12 | 37.07687 | 8.11037 | 9508 ft | 312 kts | 134° |
| 2026-04-25 16:13 | 37.05680 | 8.13645 | 8968 ft | 310 kts | 134° |
| 2026-04-25 16:13 | 37.04190 | 8.15581 | 8546 ft | 308 kts | 134° |
| 2026-04-25 16:13 | 37.02708 | 8.17506 | 8134 ft | 306 kts | 134° |
| 2026-04-25 16:13 | 37.01256 | 8.19392 | 7722 ft | 304 kts | 134° |
| 2026-04-25 16:14 | 36.99663 | 8.21107 | 7299 ft | 301 kts | 149° |
| 2026-04-25 16:14 | 36.97727 | 8.22029 | 6881 ft | 298 kts | 171° |
| 2026-04-25 16:14 | 36.95676 | 8.21992 | 6441 ft | 295 kts | 193° |
| 2026-04-25 16:14 | 36.93803 | 8.21005 | 5997 ft | 293 kts | 215° |
| 2026-04-25 16:15 | 36.92361 | 8.19243 | 5556 ft | 290 kts | 236° |
| 2026-04-25 16:15 | 36.91526 | 8.16971 | 5103 ft | 288 kts | 257° |
| 2026-04-25 16:15 | 36.91395 | 8.14494 | 4653 ft | 286 kts | 277° |
| 2026-04-25 16:15 | 36.91958 | 8.12125 | 4200 ft | 285 kts | 293° |
| 2026-04-25 16:16 | 36.92732 | 8.09856 | 3994 ft | 284 kts | 293° |
| 2026-04-25 16:16 | 36.93505 | 8.07575 | 4004 ft | 286 kts | 292° |
| 2026-04-25 16:16 | 36.94277 | 8.05285 | 4002 ft | 286 kts | 292° |
| 2026-04-25 16:16 | 36.95046 | 8.02995 | 4012 ft | 286 kts | 292° |
| 2026-04-25 16:17 | 36.95816 | 8.00702 | 4004 ft | 286 kts | 292° |
| 2026-04-25 16:17 | 36.96587 | 7.98409 | 4014 ft | 286 kts | 292° |
| 2026-04-25 16:17 | 36.97356 | 7.96118 | 4016 ft | 286 kts | 292° |
| 2026-04-25 16:17 | 36.98094 | 7.93846 | 4002 ft | 273 kts | 288° |
| 2026-04-25 16:18 | 36.98476 | 7.91606 | 3961 ft | 256 kts | 281° |
| 2026-04-25 16:18 | 36.98617 | 7.90908 | 3833 ft | 255 kts | 289° |
| 2026-04-25 16:18 | 37.00233 | 7.87842 | 3188 ft | 251 kts | 300° |
| 2026-04-25 16:18 | 37.00622 | 7.85785 | 2959 ft | 241 kts | 262° |
| 2026-04-25 16:19 | 36.99947 | 7.84003 | 3001 ft | 222 kts | 223° |
| 2026-04-25 16:19 | 36.98615 | 7.83171 | 2906 ft | 213 kts | 189° |
| 2026-04-25 16:19 | 36.97182 | 7.82889 | 2775 ft | 205 kts | 192° |
| 2026-04-25 16:20 | 36.94487 | 7.82219 | 2238 ft | 195 kts | 188° |
| 2026-04-25 16:20 | 36.93138 | 7.82088 | 1891 ft | 194 kts | 181° |
| 2026-04-25 16:20 | 36.90494 | 7.82275 | 1236 ft | 182 kts | 184° |
| 2026-04-25 16:21 | 36.89301 | 7.82057 | 1036 ft | 166 kts | 192° |
| 2026-04-25 16:21 | 36.88220 | 7.81752 | 829 ft | 151 kts | 192° |
| 2026-04-25 16:21 | 36.87223 | 7.81576 | 606 ft | 141 kts | 184° |
| 2026-04-25 16:21 | 36.86248 | 7.81545 | 383 ft | 140 kts | 184° |
| 2026-04-25 16:22 | 36.85291 | 7.81390 | 208 ft | 137 kts | 188° |
| 2026-04-25 16:22 | 36.84350 | 7.81249 | 40 ft | 134 kts | 187° |
| 2026-04-25 16:22 | 36.83509 | 7.81129 | 16 ft | 106 kts | 187° |
| 2026-04-25 16:22 | 36.82982 | 7.81044 | 19 ft | 33 kts | 180° |
| 2026-04-25 16:23 | 36.82881 | 7.81062 | 22 ft | 11 kts | 147° |
| 2026-04-25 16:23 | 36.82822 | 7.81117 | 20 ft | 11 kts | 143° |
| 2026-04-25 16:23 | 36.82762 | 7.81175 | 17 ft | 11 kts | 143° |
| 2026-04-25 16:23 | 36.82704 | 7.81229 | 17 ft | 10 kts | 142° |
| 2026-04-25 16:24 | 36.82654 | 7.81278 | 17 ft | 8 kts | 142° |
| 2026-04-25 16:24 | 36.82613 | 7.81320 | 17 ft | 7 kts | 142° |
| 2026-04-25 16:24 | 36.82575 | 7.81356 | 17 ft | 8 kts | 142° |
| 2026-04-25 16:24 | 36.82529 | 7.81402 | 17 ft | 11 kts | 141° |
| 2026-04-25 16:25 | 36.82458 | 7.81474 | 17 ft | 14 kts | 140° |
| 2026-04-25 16:25 | 36.82432 | 7.81499 | 17 ft | 14 kts | 144° |
| 2026-04-25 16:25 | 36.82430 | 7.81659 | 17 ft | 12 kts | 51° |
| 2026-04-25 16:25 | 36.82479 | 7.81737 | 17 ft | 11 kts | 53° |
| 2026-04-25 16:26 | 36.82510 | 7.81809 | 17 ft | 8 kts | 104° |
| 2026-04-25 16:26 | 36.82468 | 7.81855 | 17 ft | 8 kts | 141° |
| 2026-04-25 16:26 | 36.82437 | 7.81886 | 17 ft | 0 kts | 142° |